Time;durP1;ratioP1;P1;durP2;ratioP2;P2;SDS_P1;SDS_P2;PMS_P1;PMS_P2;Temp;Humidity;BMP_temperature;BMP_pressure;BME280_temperature;BME280_humidity;BME280_pressure;Samples;Min_cycle;Max_cycle;Signal;HPM_P1;HPM_P2
2022/08/16 00:01:44;;;;;;;11.70;11.20;;;;;;;23.10;100.00;99828.91;5051923;28;20048;-65
2022/08/16 00:04:09;;;;;;;11.65;11.15;;;;;;;23.09;100.00;99838.09;5041449;28;20075;-64
2022/08/16 00:06:35;;;;;;;11.75;11.25;;;;;;;23.10;100.00;99834.31;5051536;28;20616;-65
2022/08/16 00:09:00;;;;;;;11.70;11.20;;;;;;;23.05;100.00;99828.91;5051806;28;20025;-65
2022/08/16 00:11:26;;;;;;;11.80;11.30;;;;;;;23.09;100.00;99841.63;5051549;28;20484;-65
2022/08/16 00:13:51;;;;;;;11.80;11.30;;;;;;;23.38;100.00;99851.84;5051553;28;20047;-65
2022/08/16 00:16:17;;;;;;;11.32;10.82;;;;;;;23.24;100.00;99867.03;5054226;28;20036;-65
2022/08/16 00:18:42;;;;;;;11.23;10.73;;;;;;;23.12;100.00;99899.78;5060040;28;20029;-65
2022/08/16 00:21:08;;;;;;;11.27;10.77;;;;;;;23.50;100.00;99916.47;5051469;28;20025;-65
2022/08/16 00:23:34;;;;;;;11.63;11.13;;;;;;;22.68;100.00;99913.00;5051289;28;20399;-65
2022/08/16 00:25:59;;;;;;;11.45;10.95;;;;;;;22.14;100.00;99924.28;5051902;28;20032;-65
2022/08/16 00:28:25;;;;;;;11.27;10.77;;;;;;;22.04;100.00;99925.03;5051324;28;20033;-65
2022/08/16 00:30:50;;;;;;;11.48;10.98;;;;;;;21.70;100.00;99921.91;5063635;28;20033;-66
2022/08/16 00:33:16;;;;;;;11.65;11.15;;;;;;;21.24;100.00;99921.63;5052217;28;20032;-65
2022/08/16 00:35:42;;;;;;;11.75;11.25;;;;;;;21.21;100.00;99916.72;5050918;28;20032;-65
2022/08/16 00:38:07;;;;;;;11.57;11.07;;;;;;;21.10;100.00;99910.44;5051188;28;20037;-65
2022/08/16 00:40:47;;;;;;;12.23;11.63;;;;;;;21.17;100.00;99927.22;5051334;28;20024;-65
2022/08/16 00:43:19;;;;;;;11.75;11.23;;;;;;;21.09;100.00;99924.22;5051203;28;20389;-65
2022/08/16 00:45:52;;;;;;;12.40;11.80;;;;;;;21.11;100.00;99919.34;5051166;28;20024;-65
2022/08/16 00:48:18;;;;;;;11.45;10.95;;;;;;;21.09;100.00;99916.94;5054631;28;20036;-65
2022/08/16 00:50:44;;;;;;;12.07;11.48;;;;;;;21.06;100.00;99925.50;5055069;28;20037;-65
2022/08/16 00:53:12;;;;;;;11.88;11.38;;;;;;;21.11;100.00;99914.78;5054825;28;20016;-65
2022/08/16 00:55:43;;;;;;;11.73;11.20;;;;;;;20.99;100.00;99895.25;5055153;28;20020;-64
2022/08/16 00:58:10;;;;;;;11.88;11.32;;;;;;;21.02;100.00;99904.72;5051582;28;20056;-64
2022/08/16 01:00:36;;;;;;;12.00;11.40;;;;;;;20.86;100.00;99895.72;5044968;28;20078;-65
2022/08/16 01:03:07;;;;;;;11.38;10.88;;;;;;;20.80;100.00;99894.84;5069806;28;20361;-66
2022/08/16 01:05:33;;;;;;;11.77;11.27;;;;;;;21.06;100.00;99890.44;5054892;28;20078;-64
2022/08/16 01:08:01;;;;;;;11.57;11.07;;;;;;;20.87;100.00;99891.94;5056289;28;20017;-64
2022/08/16 01:10:29;;;;;;;11.70;11.20;;;;;;;20.80;100.00;99885.97;5054496;28;20056;-65
2022/08/16 01:12:54;;;;;;;11.55;11.05;;;;;;;20.87;100.00;99892.75;5053420;28;20032;-65
2022/08/16 01:15:21;;;;;;;11.40;10.90;;;;;;;20.90;100.00;99886.84;5055595;28;20024;-65
2022/08/16 01:17:48;;;;;;;11.70;11.20;;;;;;;20.82;100.00;99881.94;5054592;28;20044;-65
2022/08/16 01:20:16;;;;;;;11.43;10.93;;;;;;;20.80;100.00;99885.97;5054422;28;20025;-65
2022/08/16 01:22:51;;;;;;;12.00;11.40;;;;;;;20.67;100.00;99889.88;5054959;28;20096;-64
2022/08/16 01:25:40;;;;;;;11.32;10.82;;;;;;;20.64;100.00;99872.34;5054359;28;20033;-65
2022/08/16 01:28:10;;;;;;;11.88;11.30;;;;;;;20.63;100.00;99877.97;5043635;28;20091;-65
2022/08/16 01:30:43;;;;;;;11.77;11.27;;;;;;;20.78;100.00;99874.59;5054034;28;20048;-65
2022/08/16 01:33:09;;;;;;;11.65;11.15;;;;;;;20.71;100.00;99864.03;5054667;28;20429;-65
2022/08/16 01:35:49;;;;;;;11.38;10.88;;;;;;;20.47;100.00;99857.38;5054410;28;20108;-65
2022/08/16 01:38:17;;;;;;;11.50;11.00;;;;;;;20.69;100.00;99856.22;5054058;28;20397;-65
2022/08/16 01:40:42;;;;;;;11.57;11.07;;;;;;;20.83;100.00;99853.09;5063093;28;20028;-65
2022/08/16 01:43:08;;;;;;;11.60;11.10;;;;;;;20.79;100.00;99841.22;5056447;28;20021;-65
2022/08/16 01:45:34;;;;;;;11.60;11.10;;;;;;;20.59;100.00;99836.47;5054069;28;20146;-65
2022/08/16 01:48:00;;;;;;;11.70;11.20;;;;;;;20.56;100.00;99836.97;5052766;28;20101;-65
2022/08/16 01:50:27;;;;;;;11.60;11.10;;;;;;;20.47;100.00;99833.94;5053807;28;20477;-65
2022/08/16 01:52:53;;;;;;;11.57;11.07;;;;;;;20.59;100.00;99825.69;5053929;28;20020;-66
2022/08/16 01:55:23;;;;;;;11.60;11.10;;;;;;;20.56;100.00;99829.69;5053780;28;20499;-65
2022/08/16 01:57:49;;;;;;;11.52;11.02;;;;;;;20.60;100.00;99819.22;5054312;28;20130;-65
2022/08/16 02:00:16;;;;;;;11.55;11.05;;;;;;;20.20;100.00;99835.78;5052793;28;20485;-64
2022/08/16 02:02:43;;;;;;;11.95;11.35;;;;;;;20.09;100.00;99851.06;5052277;28;20033;-65
2022/08/16 02:05:10;;;;;;;11.57;11.07;;;;;;;20.26;100.00;99864.41;5053701;28;20405;-65
2022/08/16 02:07:37;;;;;;;11.95;11.38;;;;;;;20.06;100.00;99860.47;5053449;28;20036;-64
2022/08/16 02:10:06;;;;;;;11.85;11.25;;;;;;;20.33;100.00;99860.44;5053479;28;20053;-65
2022/08/16 02:12:33;;;;;;;12.15;11.55;;;;;;;20.38;100.00;99870.47;5064096;28;20054;-64
2022/08/16 02:14:58;;;;;;;11.85;11.35;;;;;;;20.45;100.00;99863.03;5053820;28;20598;-65
2022/08/16 02:17:24;;;;;;;11.75;11.25;;;;;;;20.50;100.00;99873.03;5053155;28;20120;-66
2022/08/16 02:19:50;;;;;;;11.50;11.00;;;;;;;20.54;100.00;99874.94;5053430;28;20147;-66
2022/08/16 02:22:19;;;;;;;11.50;11.00;;;;;;;20.79;100.00;99862.78;5053361;28;20025;-66
2022/08/16 02:24:45;;;;;;;11.30;10.80;;;;;;;20.64;100.00;99856.19;5053402;28;20028;-66
2022/08/16 02:27:11;;;;;;;11.93;11.38;;;;;;;20.70;100.00;99865.91;5053261;28;20570;-66
2022/08/16 02:29:38;;;;;;;11.63;11.13;;;;;;;20.64;100.00;99869.66;5053249;28;20113;-66
2022/08/16 02:32:05;;;;;;;11.48;10.98;;;;;;;20.72;100.00;99854.09;5065149;28;20539;-66
2022/08/16 02:34:31;;;;;;;11.40;10.90;;;;;;;20.75;100.00;99858.97;5057513;28;20047;-65
2022/08/16 02:36:57;;;;;;;11.75;11.25;;;;;;;20.75;100.00;99856.25;5053006;28;20029;-64
2022/08/16 02:39:22;;;;;;;11.23;10.73;;;;;;;20.78;100.00;99845.75;5053080;28;20062;-65
2022/08/16 02:41:49;;;;;;;11.50;11.00;;;;;;;20.86;100.00;99837.22;5053213;28;20108;-67
2022/08/16 02:44:16;;;;;;;11.50;11.00;;;;;;;20.85;100.00;99850.94;5052681;28;20103;-65
2022/08/16 02:46:43;;;;;;;11.20;10.70;;;;;;;20.81;100.00;99847.16;5052624;28;20029;-66
2022/08/16 02:49:09;;;;;;;11.60;11.10;;;;;;;20.83;100.00;99853.09;5052995;28;20463;-65
2022/08/16 02:51:36;;;;;;;11.98;11.38;;;;;;;20.90;100.00;99843.69;5052577;28;20021;-65
2022/08/16 02:54:03;;;;;;;11.30;10.80;;;;;;;20.93;100.00;99848.59;5052523;28;20024;-66
2022/08/16 02:56:29;;;;;;;11.70;11.20;;;;;;;20.97;100.00;99846.19;5065454;28;20081;-65
2022/08/16 02:58:55;;;;;;;11.50;11.00;;;;;;;21.03;100.00;99847.84;5052618;28;20017;-65
2022/08/16 03:01:24;;;;;;;11.60;11.10;;;;;;;21.01;100.00;99846.47;5052695;28;20780;-65
2022/08/16 03:03:51;;;;;;;11.90;11.30;;;;;;;21.15;100.00;99834.97;5052410;28;20025;-65
2022/08/16 03:06:19;;;;;;;11.52;11.02;;;;;;;21.19;100.00;99844.16;5064154;28;20031;-65
2022/08/16 03:08:46;;;;;;;11.70;11.20;;;;;;;21.24;100.00;99840.69;5051945;28;20083;-65
2022/08/16 03:11:12;;;;;;;11.30;10.80;;;;;;;21.29;100.00;99839.91;5051688;28;20025;-65
2022/08/16 03:13:38;;;;;;;11.20;10.70;;;;;;;21.36;100.00;99844.00;5053326;28;20029;-64
2022/08/16 03:16:04;;;;;;;12.00;11.40;;;;;;;21.40;100.00;99836.22;5052172;28;20033;-65
2022/08/16 03:18:30;;;;;;;11.50;11.00;;;;;;;21.45;100.00;99844.34;5051106;28;20027;-65
2022/08/16 03:20:55;;;;;;;11.23;10.73;;;;;;;21.39;100.00;99845.38;5052192;28;20108;-66
2022/08/16 03:23:21;;;;;;;11.43;10.93;;;;;;;21.44;100.00;99848.09;5052673;28;20040;-65
2022/08/16 03:25:47;;;;;;;12.05;11.45;;;;;;;21.42;100.00;99845.66;5052405;28;20129;-65
2022/08/16 03:28:13;;;;;;;11.43;10.93;;;;;;;21.51;100.00;99843.25;5052052;28;20049;-65
2022/08/16 03:30:39;;;;;;;11.63;11.13;;;;;;;21.52;100.00;99840.31;5050569;28;20112;-65
2022/08/16 03:33:05;;;;;;;11.38;10.88;;;;;;;21.61;100.00;99840.63;5052400;28;20025;-65
2022/08/16 03:35:32;;;;;;;11.50;11.00;;;;;;;21.46;100.00;99833.28;5052026;28;20051;-66
2022/08/16 03:38:00;;;;;;;11.60;11.10;;;;;;;21.54;100.00;99837.34;5066576;28;20057;-65
2022/08/16 03:40:26;;;;;;;11.57;11.07;;;;;;;21.42;100.00;99834.03;5052511;28;20075;-66
2022/08/16 03:42:53;;;;;;;11.40;10.90;;;;;;;21.50;100.00;99836.25;5076491;28;20024;-65
2022/08/16 03:45:19;;;;;;;11.50;11.00;;;;;;;21.49;100.00;99835.44;5051691;28;20466;-65
2022/08/16 03:47:46;;;;;;;11.50;11.00;;;;;;;21.38;100.00;99832.97;5040107;28;20103;-65
2022/08/16 03:50:14;;;;;;;11.63;11.13;;;;;;;21.73;100.00;99832.28;5051574;28;20021;-65
2022/08/16 03:52:41;;;;;;;11.50;11.00;;;;;;;21.69;100.00;99829.31;5051439;28;20021;-65
2022/08/16 03:55:08;;;;;;;11.38;10.88;;;;;;;21.89;100.00;99831.25;5050572;28;20103;-64
2022/08/16 03:57:34;;;;;;;11.80;11.30;;;;;;;21.84;100.00;99835.84;5052407;28;20122;-65
2022/08/16 04:00:00;;;;;;;11.95;11.35;;;;;;;22.01;100.00;99836.41;5051880;28;20155;-67
2022/08/16 04:02:27;;;;;;;11.90;11.32;;;;;;;22.11;100.00;99841.03;5063349;28;20130;-66
2022/08/16 04:04:55;;;;;;;11.35;10.85;;;;;;;22.16;100.00;99847.28;5051584;28;20392;-65
2022/08/16 04:07:20;;;;;;;11.30;10.80;;;;;;;22.10;100.00;99863.72;5051690;28;20025;-65
2022/08/16 04:09:46;;;;;;;12.20;11.60;;;;;;;22.09;100.00;99857.53;5051334;28;20035;-64
2022/08/16 04:12:11;;;;;;;11.57;11.07;;;;;;;22.19;100.00;99859.47;5044296;28;20026;-65
2022/08/16 04:14:37;;;;;;;11.82;11.30;;;;;;;22.32;100.00;99870.53;5049217;28;20412;-66
2022/08/16 04:17:04;;;;;;;11.20;10.70;;;;;;;22.27;100.00;99872.44;5051146;28;20132;-65
2022/08/16 04:19:29;;;;;;;10.98;10.48;;;;;;;22.23;100.00;99874.84;5051226;28;20013;-66
2022/08/16 04:21:55;;;;;;;12.02;11.43;;;;;;;22.16;100.00;99874.28;5051261;28;20028;-65
2022/08/16 04:24:21;;;;;;;11.55;11.05;;;;;;;21.91;100.00;99876.91;5054507;28;20057;-66
2022/08/16 04:26:46;;;;;;;11.20;10.70;;;;;;;21.87;100.00;99878.50;5055495;28;20032;-65
2022/08/16 04:29:14;;;;;;;11.45;10.95;;;;;;;21.98;100.00;99888.28;5055467;28;20036;-65
2022/08/16 04:31:39;;;;;;;12.40;11.80;;;;;;;21.70;100.00;99884.91;5066913;28;20049;-66
2022/08/16 04:34:05;;;;;;;11.65;11.15;;;;;;;21.83;100.00;99880.94;5054890;28;20097;-65
2022/08/16 04:36:31;;;;;;;11.50;11.00;;;;;;;21.99;100.00;99892.59;5055334;28;20053;-66
2022/08/16 04:38:56;;;;;;;12.25;11.65;;;;;;;22.17;100.00;99902.91;5037335;28;20045;-65
2022/08/16 04:41:22;;;;;;;11.52;11.02;;;;;;;21.51;100.00;99892.66;5059190;28;20440;-66
2022/08/16 04:43:50;;;;;;;11.70;11.20;;;;;;;21.52;100.00;99896.19;5063452;28;20045;-65
2022/08/16 04:46:15;;;;;;;11.60;11.10;;;;;;;21.06;100.00;99895.84;5055333;28;20459;-65
2022/08/16 04:48:41;;;;;;;11.70;11.18;;;;;;;21.23;100.00;99896.53;5055132;28;20111;-65
2022/08/16 04:51:08;;;;;;;11.90;11.38;;;;;;;20.83;100.00;99896.22;5054811;28;20029;-66
2022/08/16 04:53:34;;;;;;;14.45;13.65;;;;;;;20.81;100.00;99887.59;5052540;28;20032;-65
2022/08/16 04:55:59;;;;;;;13.27;12.57;;;;;;;20.64;100.00;99899.31;5069673;28;20024;-65
2022/08/16 04:58:25;;;;;;;13.27;12.57;;;;;;;20.58;100.00;99886.84;5054536;28;20113;-65
2022/08/16 05:00:51;;;;;;;12.52;11.93;;;;;;;21.05;100.00;99896.94;5054985;28;20458;-65
2022/08/16 05:03:18;;;;;;;12.10;11.50;;;;;;;20.56;100.00;99888.97;5054598;28;20112;-64
2022/08/16 05:05:44;;;;;;;12.27;11.68;;;;;;;20.54;100.00;99896.50;5054671;28;20033;-64
2022/08/16 05:08:10;;;;;;;11.85;11.27;;;;;;;21.07;100.00;99896.66;5054180;28;20111;-64
2022/08/16 05:10:35;;;;;;;12.10;11.50;;;;;;;21.55;100.00;99884.84;5053567;28;20366;-65
2022/08/16 05:13:03;;;;;;;12.13;11.52;;;;;;;21.27;100.00;99879.81;5054034;28;20075;-64
2022/08/16 05:15:28;;;;;;;11.88;11.30;;;;;;;21.12;100.00;99883.22;5053310;28;20029;-65
2022/08/16 05:17:54;;;;;;;11.80;11.23;;;;;;;21.48;100.00;99882.38;5056886;28;20025;-64
2022/08/16 05:20:21;;;;;;;12.00;11.40;;;;;;;21.45;100.00;99891.03;5052775;28;20445;-65
2022/08/16 05:22:47;;;;;;;11.55;11.05;;;;;;;21.39;100.00;99883.97;5055059;28;20029;-63
2022/08/16 05:25:14;;;;;;;11.70;11.20;;;;;;;21.09;100.00;99881.88;5053587;28;20028;-65
2022/08/16 05:27:41;;;;;;;11.52;11.02;;;;;;;21.18;100.00;99880.28;5054042;28;20021;-66
2022/08/16 05:30:11;;;;;;;11.85;11.30;;;;;;;21.33;100.00;99870.69;5053990;28;20025;-65
2022/08/16 05:32:36;;;;;;;11.43;10.93;;;;;;;21.60;100.00;99866.00;5054105;28;20391;-64
2022/08/16 05:35:06;;;;;;;12.20;11.60;;;;;;;22.63;100.00;99842.75;5052789;28;20021;-65
2022/08/16 05:37:33;;;;;;;12.25;11.65;;;;;;;22.47;100.00;99842.72;5053926;28;20028;-65
2022/08/16 05:39:59;;;;;;;12.60;12.00;;;;;;;22.36;100.00;99854.59;5052228;28;20082;-65
2022/08/16 05:42:25;;;;;;;11.85;11.27;;;;;;;22.49;100.00;99862.19;5053531;28;20024;-65
2022/08/16 05:44:50;;;;;;;12.10;11.50;;;;;;;22.88;100.00;99853.56;5053436;28;20053;-66
2022/08/16 05:47:16;;;;;;;12.02;11.43;;;;;;;23.95;100.00;99862.19;5053580;28;20102;-66
2022/08/16 05:49:41;;;;;;;11.60;11.10;;;;;;;23.92;100.00;99848.38;5054061;28;20021;-65
2022/08/16 05:52:09;;;;;;;11.50;11.00;;;;;;;24.49;100.00;99846.94;5053935;28;20492;-65
2022/08/16 05:54:34;;;;;;;11.40;10.90;;;;;;;24.04;100.00;99837.22;5053833;28;20522;-65
2022/08/16 05:57:00;;;;;;;11.38;10.88;;;;;;;24.01;100.00;99854.81;5054131;28;20029;-65
2022/08/16 05:59:25;;;;;;;11.52;11.02;;;;;;;24.49;100.00;99847.75;5053291;28;20067;-66
2022/08/16 06:01:51;;;;;;;11.77;11.27;;;;;;;24.64;100.00;99860.38;5053885;28;20032;-65
2022/08/16 06:04:18;;;;;;;12.05;11.45;;;;;;;25.01;100.00;99848.91;5053316;28;20025;-65
2022/08/16 06:06:44;;;;;;;12.05;11.45;;;;;;;25.09;100.00;99863.78;5054025;28;20041;-65
2022/08/16 06:09:11;;;;;;;11.55;11.05;;;;;;;25.35;100.00;99864.34;5053524;28;20032;-65
2022/08/16 06:11:37;;;;;;;11.73;11.23;;;;;;;25.42;100.00;99870.25;5052913;28;20029;-65
2022/08/16 06:14:04;;;;;;;12.00;11.40;;;;;;;25.57;100.00;99867.34;5061234;28;20025;-66
2022/08/16 06:16:29;;;;;;;12.60;12.00;;;;;;;25.52;100.00;99867.41;5053506;28;20029;-65
2022/08/16 06:18:55;;;;;;;13.55;12.85;;;;;;;25.77;100.00;99869.00;5056666;28;20024;-67
2022/08/16 06:21:20;;;;;;;11.77;11.25;;;;;;;25.66;100.00;99872.94;5052259;28;20093;-67
2022/08/16 06:23:46;;;;;;;12.82;12.23;;;;;;;26.08;100.00;99866.72;5055031;28;20127;-65
2022/08/16 06:26:12;;;;;;;12.73;12.13;;;;;;;25.79;100.00;99868.75;5055723;28;20033;-69
2022/08/16 06:28:37;;;;;;;12.88;12.27;;;;;;;25.35;100.00;99869.78;5049426;28;20090;-68
2022/08/16 06:31:04;;;;;;;12.73;12.13;;;;;;;23.96;100.00;99869.22;5052411;28;20024;-68
2022/08/16 06:33:30;;;;;;;12.70;12.10;;;;;;;24.45;100.00;99859.44;5043785;28;20036;-66
2022/08/16 06:35:55;;;;;;;12.65;12.05;;;;;;;24.43;100.00;99858.91;5048886;28;20033;-67
2022/08/16 06:38:21;;;;;;;13.02;12.43;;;;;;;24.77;100.00;99862.44;5048949;28;20031;-69
2022/08/16 06:40:47;;;;;;;12.82;12.23;;;;;;;22.46;100.00;99865.41;5038931;28;20029;-69
2022/08/16 06:43:13;;;;;;;12.23;11.63;;;;;;;22.10;100.00;99871.84;5057374;28;20028;-70
2022/08/16 06:45:41;;;;;;;13.02;12.43;;;;;;;23.19;100.00;99870.53;5055651;28;20048;-69
2022/08/16 06:48:07;;;;;;;13.90;13.20;;;;;;;22.72;100.00;99878.97;5043153;28;20079;-69
2022/08/16 06:50:35;;;;;;;12.40;11.80;;;;;;;23.53;100.00;99867.22;5053308;28;20041;-69
2022/08/16 06:53:02;;;;;;;13.00;12.38;;;;;;;23.17;100.00;99870.81;5056594;28;20032;-69
2022/08/16 06:55:28;;;;;;;12.90;12.30;;;;;;;22.88;100.00;99875.19;5047549;28;20029;-69
2022/08/16 06:57:54;;;;;;;13.43;12.73;;;;;;;22.67;100.00;99874.34;5054246;28;20115;-70
2022/08/16 07:00:21;;;;;;;13.95;13.25;;;;;;;22.44;100.00;99872.19;5049851;28;20605;-69
2022/08/16 07:02:47;;;;;;;13.20;12.52;;;;;;;22.25;100.00;99880.78;5080071;28;20351;-68
2022/08/16 07:05:15;;;;;;;13.63;12.93;;;;;;;23.08;100.00;99877.06;5054468;28;20044;-69
2022/08/16 07:07:43;;;;;;;12.85;12.25;;;;;;;22.89;100.00;99869.50;5047962;28;20412;-68
2022/08/16 07:10:09;;;;;;;13.20;12.50;;;;;;;22.79;100.00;99865.97;5043212;28;20025;-68
2022/08/16 07:12:36;;;;;;;13.85;13.15;;;;;;;22.65;100.00;99870.31;5048102;28;20155;-68
2022/08/16 07:15:03;;;;;;;13.15;12.45;;;;;;;23.01;100.00;99868.41;5047876;28;20111;-68
2022/08/16 07:17:29;;;;;;;12.65;12.05;;;;;;;23.79;100.00;99871.44;5048488;28;20036;-69
2022/08/16 07:19:55;;;;;;;12.85;12.25;;;;;;;23.58;100.00;99876.13;5049024;28;20113;-68
2022/08/16 07:22:21;;;;;;;13.88;13.18;;;;;;;22.81;100.00;99877.31;5047647;28;20112;-67
2022/08/16 07:24:47;;;;;;;13.25;12.55;;;;;;;22.60;100.00;99898.94;5047057;28;20031;-70
2022/08/16 07:27:12;;;;;;;13.00;12.32;;;;;;;23.08;100.00;99887.91;5048165;28;20025;-68
2022/08/16 07:29:38;;;;;;;12.75;12.15;;;;;;;22.97;100.00;99888.97;5058674;28;20032;-68
2022/08/16 07:32:05;;;;;;;13.63;12.93;;;;;;;23.52;100.00;99888.06;5048506;28;20594;-67
2022/08/16 07:34:31;;;;;;;12.27;11.68;;;;;;;22.84;100.00;99885.72;5050830;28;21032;-70
2022/08/16 07:36:59;;;;;;;12.20;11.60;;;;;;;24.16;100.00;99889.13;5053634;28;20100;-70
2022/08/16 07:39:25;;;;;;;11.95;11.38;;;;;;;23.68;100.00;99888.84;5041952;28;20024;-69
2022/08/16 07:41:50;;;;;;;13.38;12.68;;;;;;;23.60;100.00;99897.50;5046163;28;20049;-75
2022/08/16 07:44:16;;;;;;;12.93;12.27;;;;;;;24.70;100.00;99885.56;5049578;28;20444;-68
2022/08/16 07:46:41;;;;;;;12.77;12.18;;;;;;;25.44;100.00;99886.25;5047970;28;20028;-70
2022/08/16 07:49:07;;;;;;;12.63;12.02;;;;;;;24.81;100.00;99892.50;5041865;28;20083;-70
2022/08/16 07:51:35;;;;;;;13.18;12.50;;;;;;;24.52;100.00;99890.56;5045073;28;20033;-70
2022/08/16 07:54:03;;;;;;;13.38;12.68;;;;;;;25.76;100.00;99905.44;5069811;28;20039;-68
2022/08/16 07:56:28;;;;;;;12.82;12.23;;;;;;;25.61;100.00;99906.41;5047376;28;20025;-68
2022/08/16 07:58:55;;;;;;;13.05;12.45;;;;;;;26.38;100.00;99906.25;5051186;28;20040;-69
2022/08/16 08:01:22;;;;;;;13.45;12.75;;;;;;;25.46;100.00;99903.03;5055678;28;20115;-69
2022/08/16 08:03:48;;;;;;;12.60;12.00;;;;;;;26.14;100.00;99900.84;5048449;28;20039;-68
2022/08/16 08:06:16;;;;;;;13.07;12.48;;;;;;;26.60;100.00;99905.66;5044058;28;20095;-68
2022/08/16 08:08:42;;;;;;;13.60;12.90;;;;;;;26.51;100.00;99907.41;5050242;28;20028;-68
2022/08/16 08:11:08;;;;;;;12.85;12.25;;;;;;;26.13;100.00;99901.16;5052446;28;20206;-69
2022/08/16 08:13:34;;;;;;;12.77;12.18;;;;;;;26.32;100.00;99909.34;5048135;28;20418;-66
2022/08/16 08:15:59;;;;;;;12.93;12.32;;;;;;;26.97;100.00;99912.16;5061333;28;20029;-68
2022/08/16 08:18:25;;;;;;;12.88;12.27;;;;;;;28.01;100.00;99916.19;5041282;28;20025;-69
2022/08/16 08:20:50;;;;;;;12.30;11.70;;;;;;;28.14;100.00;99918.09;5046859;28;20033;-67
2022/08/16 08:23:17;;;;;;;12.23;11.63;;;;;;;27.43;100.00;99917.59;5037931;28;20549;-67
2022/08/16 08:25:44;;;;;;;12.98;12.38;;;;;;;27.79;100.00;99920.47;5047763;28;20040;-69
2022/08/16 08:28:10;;;;;;;12.82;12.23;;;;;;;27.79;100.00;99914.19;5043265;28;20484;-68
2022/08/16 08:30:36;;;;;;;12.88;12.27;;;;;;;27.94;100.00;99919.34;5043680;28;20096;-67
2022/08/16 08:33:02;;;;;;;12.57;11.98;;;;;;;27.26;100.00;99931.00;5053507;28;20021;-66
2022/08/16 08:35:28;;;;;;;12.38;11.77;;;;;;;26.79;100.00;99923.88;5050425;28;20151;-69
2022/08/16 08:37:54;;;;;;;13.55;12.85;;;;;;;26.33;100.00;99935.41;5058443;28;20020;-68
2022/08/16 08:40:20;;;;;;;13.43;12.73;;;;;;;26.06;100.00;99960.50;5052884;28;20040;-70
2022/08/16 08:42:46;;;;;;;12.80;12.20;;;;;;;25.86;100.00;99951.53;5052638;28;20029;-69
2022/08/16 08:45:12;;;;;;;13.68;12.98;;;;;;;25.59;100.00;99946.63;5056768;28;20094;-68
2022/08/16 08:47:38;;;;;;;12.77;12.18;;;;;;;25.66;100.00;99940.03;5045823;28;20965;-68
2022/08/16 08:50:05;;;;;;;12.65;12.05;;;;;;;25.24;100.00;99949.69;5059795;28;20040;-68
2022/08/16 08:52:31;;;;;;;13.38;12.68;;;;;;;25.05;100.00;99946.91;5050247;28;20033;-68
2022/08/16 08:54:57;;;;;;;13.65;12.95;;;;;;;25.25;100.00;99940.44;5066314;28;20067;-67
2022/08/16 08:57:23;;;;;;;13.40;12.70;;;;;;;24.67;100.00;99938.44;5056987;28;20016;-68
2022/08/16 08:59:48;;;;;;;13.02;12.43;;;;;;;24.84;100.00;99938.06;5043639;28;20033;-66
2022/08/16 09:02:15;;;;;;;13.13;12.48;;;;;;;24.97;100.00;99928.47;5045813;28;20054;-66
2022/08/16 09:04:42;;;;;;;12.75;12.15;;;;;;;25.02;100.00;99931.94;5046734;28;20017;-66
2022/08/16 09:07:10;;;;;;;12.77;12.18;;;;;;;25.28;100.00;99932.56;5048623;28;20029;-66
2022/08/16 09:09:35;;;;;;;12.18;11.57;;;;;;;25.31;100.00;99931.97;5058744;28;20052;-65
2022/08/16 09:12:01;;;;;;;12.25;11.65;;;;;;;25.26;100.00;99939.34;5044845;28;20492;-67
2022/08/16 09:14:27;;;;;;;12.95;12.35;;;;;;;25.42;100.00;99940.84;5066286;28;20025;-66
2022/08/16 09:16:53;;;;;;;13.05;12.45;;;;;;;25.21;100.00;99934.81;5046684;28;20112;-66
2022/08/16 09:19:21;;;;;;;12.88;12.27;;;;;;;25.32;100.00;99941.72;5051563;28;20085;-68
2022/08/16 09:21:48;;;;;;;12.82;12.23;;;;;;;25.05;100.00;99945.00;5049951;28;20146;-66
2022/08/16 09:24:15;;;;;;;12.35;11.75;;;;;;;25.01;100.00;99943.91;5055711;28;20078;-67
2022/08/16 09:26:40;;;;;;;13.45;12.75;;;;;;;25.05;100.00;99949.63;5055008;28;20020;-67
2022/08/16 09:29:06;;;;;;;13.55;12.85;;;;;;;25.14;100.00;99939.75;5059359;28;20043;-66
2022/08/16 09:31:32;;;;;;;12.73;12.13;;;;;;;25.24;100.00;99946.97;5054963;28;20107;-67
2022/08/16 09:34:00;;;;;;;13.60;12.90;;;;;;;25.38;100.00;99945.22;5056028;28;20483;-67
2022/08/16 09:36:28;;;;;;;13.15;12.50;;;;;;;25.47;100.00;99948.13;5048017;28;20052;-66
2022/08/16 09:38:55;;;;;;;13.52;12.82;;;;;;;25.28;100.00;99957.00;5054190;28;20059;-68
2022/08/16 09:41:20;;;;;;;12.57;11.98;;;;;;;25.38;100.00;99942.50;5056855;28;20074;-66
2022/08/16 09:43:46;;;;;;;12.80;12.20;;;;;;;25.27;100.00;99955.38;5046907;28;20128;-68
2022/08/16 09:46:11;;;;;;;13.20;12.52;;;;;;;24.84;100.00;99953.56;5061849;28;20114;-67
2022/08/16 09:48:40;;;;;;;12.68;12.07;;;;;;;24.80;100.00;99956.81;5057918;28;20075;-67
2022/08/16 09:51:10;;;;;;;13.55;12.85;;;;;;;24.91;100.00;99948.63;5055494;28;20039;-68
2022/08/16 09:53:36;;;;;;;13.32;12.63;;;;;;;24.83;100.00;99943.78;5050133;28;20028;-65
2022/08/16 09:56:06;;;;;;;13.23;12.52;;;;;;;24.80;100.00;99942.44;5046095;28;20032;-66
2022/08/16 09:58:32;;;;;;;12.85;12.25;;;;;;;25.04;100.00;99931.69;5050194;28;20029;-66
2022/08/16 10:00:57;;;;;;;12.73;12.13;;;;;;;24.98;100.00;99936.34;5050221;28;20087;-66
2022/08/16 10:03:23;;;;;;;12.23;11.63;;;;;;;25.06;100.00;99926.81;5053618;28;20052;-66
2022/08/16 10:05:49;;;;;;;13.15;12.50;;;;;;;25.69;100.00;99925.88;5049947;28;20403;-67
2022/08/16 10:08:18;;;;;;;12.57;11.98;;;;;;;25.79;100.00;99928.53;5052705;28;20126;-67
2022/08/16 10:13:10;;;;;;;12.80;12.20;;;;;;;26.52;100.00;99932.75;5057256;28;20123;-67
2022/08/16 10:13:32;;;;;;;12.77;12.18;;;;;;;26.61;100.00;99934.50;5051563;28;20051;-67
2022/08/16 10:15:58;;;;;;;13.55;12.85;;;;;;;27.10;100.00;99930.47;5050506;28;20475;-68
2022/08/16 10:18:29;;;;;;;12.50;11.90;;;;;;;26.35;100.00;99925.03;5038710;28;20033;-66
2022/08/16 10:20:57;;;;;;;12.68;12.07;;;;;;;25.49;100.00;99925.03;5086931;28;20028;-68
2022/08/16 10:23:23;;;;;;;12.43;11.82;;;;;;;26.33;100.00;99924.53;5049263;28;20092;-68
2022/08/16 10:25:49;;;;;;;12.50;11.90;;;;;;;27.15;100.00;99922.19;5040983;28;20025;-68
2022/08/16 10:28:15;;;;;;;12.90;12.30;;;;;;;26.60;100.00;99923.91;5049243;28;20040;-67
2022/08/16 10:30:42;;;;;;;12.95;12.35;;;;;;;26.24;100.00;99932.56;5047624;28;20031;-68
2022/08/16 10:33:12;;;;;;;11.90;11.38;;;;;;;27.48;100.00;99941.22;5047805;28;20036;-68
2022/08/16 10:35:38;;;;;;;12.98;12.38;;;;;;;27.26;100.00;99955.50;5043032;28;20032;-68
2022/08/16 10:38:04;;;;;;;13.50;12.80;;;;;;;27.55;100.00;99955.25;5048960;28;20037;-67
2022/08/16 10:40:30;;;;;;;11.55;11.05;;;;;;;26.86;100.00;99963.22;5044709;28;20126;-68
2022/08/16 10:42:58;;;;;;;12.73;12.13;;;;;;;27.20;100.00;99957.50;5046650;28;20017;-67
2022/08/16 10:45:24;;;;;;;12.60;12.00;;;;;;;26.99;100.00;99967.09;5044930;28;20033;-67
2022/08/16 10:47:50;;;;;;;12.82;12.23;;;;;;;26.95;100.00;99963.34;5043183;28;20086;-69
2022/08/16 10:50:15;;;;;;;12.52;11.93;;;;;;;26.06;100.00;99963.22;5048564;28;20044;-67
2022/08/16 10:52:41;;;;;;;13.43;12.73;;;;;;;27.22;100.00;99960.72;5050306;28;20553;-69
2022/08/16 10:55:08;;;;;;;12.27;11.68;;;;;;;26.77;100.00;99970.44;5049368;28;20112;-67
2022/08/16 10:57:34;;;;;;;12.95;12.35;;;;;;;27.25;100.00;99968.31;5060692;28;20017;-67
2022/08/16 11:00:00;;;;;;;13.32;12.65;;;;;;;28.86;100.00;99969.94;5049357;28;20031;-67
2022/08/16 11:02:26;;;;;;;12.75;12.15;;;;;;;29.71;100.00;99968.06;5057727;28;20759;-66
2022/08/16 11:04:53;;;;;;;13.38;12.70;;;;;;;29.85;100.00;99969.88;5049659;28;20029;-67
2022/08/16 11:07:19;;;;;;;12.98;12.38;;;;;;;30.46;100.00;99971.63;5056407;28;20500;-65